createdAt,value
2023-03-16T15:39:33.192Z,6.48
2023-03-16T15:42:58.394Z,7.42
2023-03-16T15:46:23.606Z,7.67
2023-03-16T15:49:48.716Z,7.85
2023-03-16T15:53:27.635Z,7.99
2023-03-16T15:56:51.234Z,8.11
2023-03-16T16:00:04.195Z,8.23
2023-03-16T16:03:29.347Z,8.32
2023-03-16T16:06:54.518Z,8.41
2023-03-16T16:10:19.763Z,8.44
2023-03-16T16:13:45.375Z,8.43
2023-03-16T16:17:10.224Z,8.41
2023-03-16T16:20:35.493Z,8.43
2023-03-16T16:24:00.645Z,8.5
2023-03-16T16:27:25.837Z,8.5
2023-03-16T16:30:51.581Z,8.52
2023-03-16T16:34:16.764Z,8.54
2023-03-16T16:37:41.949Z,8.53
2023-03-16T16:41:07.137Z,8.52
2023-03-16T16:44:34.945Z,8.51
2023-03-16T16:47:57.535Z,8.52
2023-03-16T16:51:22.759Z,8.5
2023-03-16T16:54:47.932Z,8.47
2023-03-16T16:58:23.837Z,8.46
2023-03-16T17:01:38.401Z,8.43
2023-03-16T17:05:03.580Z,8.41
2023-03-16T17:08:28.800Z,8.37
2023-03-16T17:11:54.069Z,8.3
2023-03-16T17:15:19.719Z,8.26
2023-03-16T17:18:44.892Z,8.21
2023-03-16T17:22:10.111Z,8.16
2023-03-16T17:25:35.285Z,8.12
2023-03-16T17:29:00.533Z,8.1
2023-03-16T17:32:25.886Z,8.08
2023-03-16T17:35:51.003Z,8.06
2023-03-16T17:39:16.210Z,7.99
2023-03-16T17:42:41.423Z,7.98
2023-03-16T17:46:06.614Z,7.98
2023-03-16T17:49:31.760Z,7.97
2023-03-16T17:52:56.966Z,7.94
2023-03-16T17:56:24.726Z,7.87
2023-03-16T17:59:49.506Z,7.82
2023-03-16T18:03:15.678Z,7.78
2023-03-16T18:06:41.652Z,7.72
2023-03-16T18:10:06.877Z,7.69
2023-03-16T18:13:32.056Z,7.66
2023-03-16T18:16:57.240Z,7.64
2023-03-16T18:20:22.412Z,7.59
2023-03-16T18:23:47.570Z,7.56
2023-03-16T18:27:12.742Z,7.5
2023-03-16T18:30:37.964Z,7.45
2023-03-16T18:34:03.119Z,7.42
2023-03-16T18:37:28.368Z,7.37
2023-03-16T18:40:53.427Z,7.35
2023-03-16T18:44:18.605Z,7.31
2023-03-16T18:47:43.796Z,7.28
2023-03-16T18:51:08.941Z,7.23
2023-03-16T18:54:34.094Z,7.2
2023-03-16T18:57:59.229Z,7.21
2023-03-16T19:01:24.367Z,7.23
2023-03-16T19:04:49.622Z,7.24
2023-03-16T19:08:14.771Z,7.21
2023-03-16T19:11:39.958Z,7.2
2023-03-16T19:15:05.126Z,7.18
2023-03-16T19:18:30.263Z,7.11
2023-03-16T19:21:55.428Z,7.05
2023-03-16T19:25:20.573Z,7.03
2023-03-16T19:28:45.682Z,7.02
2023-03-16T19:32:10.828Z,7.02
2023-03-16T19:35:50.565Z,7.01
2023-03-16T19:39:01.303Z,7.03
2023-03-16T19:42:26.477Z,7.07
2023-03-16T19:45:51.784Z,7.09
2023-03-16T19:49:16.904Z,7.09
2023-03-16T19:52:42.122Z,7.06
2023-03-16T19:56:07.372Z,7.02
2023-03-16T19:59:32.568Z,6.96
2023-03-16T20:02:57.728Z,6.92
2023-03-16T20:06:22.918Z,6.9
2023-03-16T20:09:48.141Z,6.93
2023-03-16T20:13:13.243Z,6.91
2023-03-16T20:16:38.409Z,6.91
2023-03-16T20:20:03.577Z,6.93
2023-03-16T20:23:28.735Z,6.94
2023-03-16T20:26:53.988Z,6.93
2023-03-16T20:30:19.179Z,6.95
2023-03-16T20:33:44.368Z,6.96
2023-03-16T20:37:09.580Z,6.98
2023-03-16T20:40:34.748Z,6.93
2023-03-16T20:44:00.024Z,6.91
2023-03-16T20:47:25.124Z,6.91
2023-03-16T20:50:50.313Z,6.89
2023-03-16T20:54:15.528Z,6.9
2023-03-16T20:57:40.656Z,6.9
2023-03-16T21:01:05.861Z,6.86
2023-03-16T21:04:31.089Z,6.85
2023-03-16T21:07:56.157Z,6.87
2023-03-16T21:11:21.322Z,6.86
2023-03-16T21:14:46.518Z,6.83
2023-03-16T21:18:11.689Z,6.79
2023-03-16T21:21:36.968Z,6.79
2023-03-16T21:25:02.170Z,6.81
2023-03-16T21:28:27.348Z,6.78
2023-03-16T21:31:52.534Z,6.69
2023-03-16T21:35:17.740Z,6.65
2023-03-16T21:38:42.939Z,6.63
2023-03-16T21:42:08.110Z,6.61
2023-03-16T21:45:33.284Z,6.6
2023-03-16T21:48:58.476Z,6.61
2023-03-16T21:52:23.663Z,6.64
2023-03-16T21:55:48.786Z,6.62
2023-03-16T21:59:13.956Z,6.61
2023-03-16T22:02:39.215Z,6.59
2023-03-16T22:06:04.293Z,6.56
2023-03-16T22:09:29.494Z,6.53
2023-03-16T22:12:54.669Z,6.48
2023-03-16T22:16:19.916Z,6.46
2023-03-16T22:19:45.034Z,6.51
2023-03-16T22:23:10.231Z,6.51
2023-03-16T22:26:35.434Z,6.47
2023-03-16T22:30:00.605Z,6.43
2023-03-16T22:33:25.739Z,6.47
2023-03-16T22:36:50.890Z,6.51
2023-03-16T22:40:16.074Z,6.52
2023-03-16T22:43:41.209Z,6.49
2023-03-16T22:47:06.422Z,6.48
2023-03-16T22:50:31.575Z,6.43
2023-03-16T22:53:56.702Z,6.39
2023-03-16T22:57:21.852Z,6.39
2023-03-16T23:00:47.057Z,6.38
2023-03-16T23:04:12.177Z,6.37
2023-03-16T23:07:37.289Z,6.39
2023-03-16T23:11:02.461Z,6.37
2023-03-16T23:14:27.657Z,6.38
2023-03-16T23:17:52.840Z,6.4
2023-03-16T23:21:18.078Z,6.39
2023-03-16T23:24:43.278Z,6.39
2023-03-16T23:28:08.392Z,6.42
2023-03-16T23:31:33.561Z,6.43
2023-03-16T23:34:58.736Z,6.43
2023-03-16T23:38:23.946Z,6.44
2023-03-16T23:41:49.634Z,6.42
2023-03-16T23:45:14.824Z,6.42
2023-03-16T23:48:39.998Z,6.41
2023-03-16T23:52:05.225Z,6.42
2023-03-16T23:55:30.464Z,6.39
2023-03-16T23:58:55.606Z,6.37
